Flight Track Log - Related Links

Times and Time Zones

All times are in EDT time to prevent confusion due to time zone crossing. See the N42CV flight status page for this flight to view local times or setup timezone preferences in your user account.

Time Position Orientation Groundspeed Altitude Reporting Facility
EDT Latitude Longitude Course Direction KTS MPH feet Rate Location/Type
Thu 12:44:15 PM 30.2347 -91.8542 90° East 182 209 4,300  Level Houston Center
Thu 12:45:17 PM 30.2239 -91.7900 101° East 191 220 5,500 1,306 Climbing Houston Center
Thu 12:46:19 PM 30.2189 -91.7131 94° East 214 246 7,000 1,548 Climbing Houston Center
Thu 12:47:21 PM 30.2331 -91.6456 76° East 216 249 8,700 1,694 Climbing Houston Center
Thu 12:48:00 PM 30.1564 -91.5386 101° East  Level FlightAware Approximate
Thu 12:48:23 PM 30.2456 -91.5672 80° East 210 242 10,500  Level Houston Center
Thu 12:49:00 PM 30.1500 -91.4645 90° East  Level FlightAware Approximate
Thu 12:49:26 PM 30.2575 -91.5011 78° East 209 241 11,900  Level Houston Center
Thu 12:50:28 PM 30.2681 -91.4358 79° East 209 241 13,300 1,113 Climbing Houston Center
Thu 12:51:30 PM 30.2775 -91.3703 81° East 208 239 14,200 387 Climbing Houston Center
Thu 12:52:32 PM 30.2861 -91.2939 83° East 230 265 14,100 435 Descending Houston Center
Thu 12:53:34 PM 30.3017 -91.2136 77° East 250 288 15,100 1,452 Climbing Houston Center
Thu 12:54:36 PM 30.3178 -91.1364 76° East 209 241 17,100 1,355 Climbing Houston Center
Thu 12:55:38 PM 30.3233 -91.0747 84° East 196 226 17,900 768 Climbing Houston Center
Thu 12:56:41 PM 30.3311 -91.0058 83° East 214 246 18,700 528 Climbing Houston Center
Thu 12:57:43 PM 30.3244 -90.9353 96° East 221 254 19,000 145 Climbing Houston Center
Thu 12:58:45 PM 30.3197 -90.8550 94° East 247 284 19,000  Level Houston Center
Thu 12:59:47 PM 30.3247 -90.7567 87° East 255 293 19,000  Level Houston Center
Thu 01:00:49 PM 30.3347 -90.6744 82° East 258 297 19,000  Level Houston Center
Thu 01:01:51 PM 30.3397 -90.5919 86° East 258 297 19,000  Level Houston Center
Thu 01:02:53 PM 30.3364 -90.5089 93° East 258 297 19,000  Level Houston Center
Thu 01:03:56 PM 30.3217 -90.4281 102° East 257 296 19,000  Level Houston Center
Thu 01:04:58 PM 30.3039 -90.3469 104° East 260 299 19,000  Level Houston Center
Thu 01:06:00 PM 30.2811 -90.2500 105° East 261 300 19,000  Level Houston Center
Thu 01:07:02 PM 30.2622 -90.1689 105° East 262 302 19,000  Level Houston Center
Thu 01:08:04 PM 30.2419 -90.0897 106° East 259 298 19,000  Level Houston Center
Thu 01:09:06 PM 30.2203 -90.0092 107° East 262 302 19,000  Level Houston Center
Thu 01:10:08 PM 30.1997 -89.9294 107° East 262 302 19,000  Level Houston Center
Thu 01:11:11 PM 30.1664 -89.8378 113° Southeast 261 300 19,000  Level Houston Center
Thu 01:12:13 PM 30.1356 -89.7628 115° Southeast 261 300 19,000  Level Houston Center
Thu 01:13:15 PM 30.1089 -89.6867 112° Southeast 258 297 19,000  Level Houston Center
Thu 01:14:17 PM 30.1094 -89.6047 90° East 257 296 19,000  Level Houston Center
Thu 01:15:19 PM 30.1214 -89.5069 82° East 258 297 19,000  Level Houston Center
Thu 01:16:21 PM 30.1311 -89.4247 82° East 260 299 19,000  Level Houston Center
Thu 01:17:23 PM 30.1411 -89.3417 82° East 261 300 19,000  Level Houston Center
Thu 01:18:26 PM 30.1525 -89.2600 81° East 260 299 19,000  Level Houston Center
Thu 01:19:28 PM 30.1631 -89.1764 82° East 262 302 19,000  Level Houston Center
Thu 01:20:30 PM 30.1736 -89.0764 83° East 263 303 19,000  Level Houston Center
Thu 01:21:32 PM 30.1847 -88.9931 81° East 264 304 19,000  Level Houston Center
Thu 01:22:34 PM 30.1950 -88.9056 82° East 263 303 19,000  Level Houston Center
Thu 01:23:36 PM 30.2053 -88.8225 82° East 262 302 19,000  Level Houston Center
Thu 01:24:38 PM 30.2153 -88.7394 82° East 261 300 19,000  Level Houston Center
Thu 01:25:41 PM 30.2253 -88.6558 82° East 263 303 19,000  Level Houston Center
Thu 01:26:43 PM 30.2353 -88.5711 82° East 265 305 19,000 -194 Level Houston Center
Thu 01:27:45 PM 30.2478 -88.4689 82° East 268 308 18,600 -435 Descending Houston Center
Thu 01:28:47 PM 30.2578 -88.3786 83° East 279 321 18,100 -387 Descending Houston Center
Thu 01:29:49 PM 30.2681 -88.2900 82° East 280 322 17,800 -387 Descending Houston Center
Thu 01:30:51 PM 30.2803 -88.2000 81° East 283 326 17,300 -968 Descending Houston Center
Thu 01:31:53 PM 30.2900 -88.1067 83° East 293 337 15,800 -1,065 Descending Houston Center
Thu 01:32:55 PM 30.3039 -87.9883 82° East 304 350 15,100 -336 Descending Houston Center
Thu 01:33:58 PM 30.2981 -87.9033 95° East 270 311 15,100  Level Houston Center
Thu 01:35:00 PM 30.2619 -87.8258 118° Southeast 272 313 15,100  Level Houston Center
Thu 01:36:02 PM 30.2281 -87.7483 117° Southeast 271 312 15,100  Level Houston Center
Thu 01:37:04 PM 30.2031 -87.6656 109° East 272 313 15,100  Level Houston Center
Thu 01:38:06 PM 30.1925 -87.5633 97° East 271 312 15,100 51 Level Houston Center
Thu 01:39:01 PM 30.2064 -87.4972 76° East 267 307 15,200 -569 Climbing Jacksonville Center
Thu 01:40:02 PM 30.2303 -87.4094 72° East 278 320 14,000 -1,131 Descending Jacksonville Center
Thu 01:41:03 PM 30.2525 -87.3144 75° East 296 341 12,900 -1,140 Descending Jacksonville Center
Thu 01:42:03 PM 30.2742 -87.2264 74° East 287 330 11,700 -1,200 Descending Jacksonville Center
Thu 01:44:00 PM 30.2792 -87.0831 74° East  Level FlightAware Approximate
Thu 01:51:00 PM 30.3848 -86.5372 76° East  Level FlightAware Approximate
Thu 01:52:00 PM 30.4000 -86.4667 76° East  Level FlightAware Approximate
Thu 01:53:00 PM 30.4000 -86.4715 76° East  Level Estimated
Thu 01:54:00 PM 30.4000 -86.4667 76° East  Level FlightAware Approximate
Thu 01:55:00 PM 30.4000 -86.4715 76° East  Level Estimated
Thu 01:56:00 PM 30.4000 -86.4667 76° East  Level FlightAware Approximate

Login

Don't have an account? Register now (free) for customized features, flight alerts, and more!